sensor_id;sensor_type;location;lat;lon;timestamp;temperature;humidity
21762;DHT22;11203;50.870;20.682;2023-03-25T00:00:00;12.40;99.90
21762;DHT22;11203;50.870;20.682;2023-03-25T00:02:51;12.40;99.90
21762;DHT22;11203;50.870;20.682;2023-03-25T00:05:19;12.30;99.90
21762;DHT22;11203;50.870;20.682;2023-03-25T00:07:49;12.30;99.90
21762;DHT22;11203;50.870;20.682;2023-03-25T00:10:16;12.20;99.90
21762;DHT22;11203;50.870;20.682;2023-03-25T00:12:43;12.20;99.90
21762;DHT22;11203;50.870;20.682;2023-03-25T00:15:11;12.20;99.90
21762;DHT22;11203;50.870;20.682;2023-03-25T00:17:38;12.20;99.90
21762;DHT22;11203;50.870;20.682;2023-03-25T00:20:05;12.20;99.90
21762;DHT22;11203;50.870;20.682;2023-03-25T00:22:34;12.00;99.90
21762;DHT22;11203;50.870;20.682;2023-03-25T00:25:09;12.00;99.90
21762;DHT22;11203;50.870;20.682;2023-03-25T00:27:41;11.90;99.90
21762;DHT22;11203;50.870;20.682;2023-03-25T00:30:09;11.80;99.90
21762;DHT22;11203;50.870;20.682;2023-03-25T00:32:36;11.80;99.90
21762;DHT22;11203;50.870;20.682;2023-03-25T00:35:02;11.70;99.90
21762;DHT22;11203;50.870;20.682;2023-03-25T00:37:28;11.70;99.90
21762;DHT22;11203;50.870;20.682;2023-03-25T00:39:54;11.70;99.90
21762;DHT22;11203;50.870;20.682;2023-03-25T00:42:21;11.70;99.90
21762;DHT22;11203;50.870;20.682;2023-03-25T00:44:51;11.60;99.90
21762;DHT22;11203;50.870;20.682;2023-03-25T00:47:18;11.60;99.90
21762;DHT22;11203;50.870;20.682;2023-03-25T00:49:47;11.60;99.90
21762;DHT22;11203;50.870;20.682;2023-03-25T00:52:14;11.60;99.90
21762;DHT22;11203;50.870;20.682;2023-03-25T00:54:41;11.60;99.90
21762;DHT22;11203;50.870;20.682;2023-03-25T00:57:08;11.60;99.90
21762;DHT22;11203;50.870;20.682;2023-03-25T00:59:34;11.50;99.90
21762;DHT22;11203;50.870;20.682;2023-03-25T01:02:00;11.50;99.90
21762;DHT22;11203;50.870;20.682;2023-03-25T01:04:27;11.40;99.90
21762;DHT22;11203;50.870;20.682;2023-03-25T01:06:54;11.50;99.90
21762;DHT22;11203;50.870;20.682;2023-03-25T01:09:20;11.40;99.90
21762;DHT22;11203;50.870;20.682;2023-03-25T01:11:47;11.40;99.90
21762;DHT22;11203;50.870;20.682;2023-03-25T01:14:20;11.30;99.90
21762;DHT22;11203;50.870;20.682;2023-03-25T01:16:49;11.30;99.90
21762;DHT22;11203;50.870;20.682;2023-03-25T01:19:15;11.30;99.90
21762;DHT22;11203;50.870;20.682;2023-03-25T01:21:41;11.30;99.90
21762;DHT22;11203;50.870;20.682;2023-03-25T01:24:12;11.20;99.90
21762;DHT22;11203;50.870;20.682;2023-03-25T01:26:39;11.20;99.90
21762;DHT22;11203;50.870;20.682;2023-03-25T01:29:09;11.20;99.90
21762;DHT22;11203;50.870;20.682;2023-03-25T01:31:36;11.20;99.90
21762;DHT22;11203;50.870;20.682;2023-03-25T01:34:02;11.10;99.90
21762;DHT22;11203;50.870;20.682;2023-03-25T01:36:29;11.20;99.90
21762;DHT22;11203;50.870;20.682;2023-03-25T01:38:56;11.20;99.90
21762;DHT22;11203;50.870;20.682;2023-03-25T01:41:25;11.10;99.90
21762;DHT22;11203;50.870;20.682;2023-03-25T01:46:58;11.10;99.90
21762;DHT22;11203;50.870;20.682;2023-03-25T01:49:33;11.10;99.90
21762;DHT22;11203;50.870;20.682;2023-03-25T01:52:17;11.00;99.90
21762;DHT22;11203;50.870;20.682;2023-03-25T01:54:49;11.00;99.90
21762;DHT22;11203;50.870;20.682;2023-03-25T01:57:19;11.10;99.90
21762;DHT22;11203;50.870;20.682;2023-03-25T01:59:46;11.00;99.90
21762;DHT22;11203;50.870;20.682;2023-03-25T02:02:15;11.00;99.90
21762;DHT22;11203;50.870;20.682;2023-03-25T02:07:27;11.00;99.90
21762;DHT22;11203;50.870;20.682;2023-03-25T02:09:58;11.00;99.90
21762;DHT22;11203;50.870;20.682;2023-03-25T02:12:29;10.90;99.90
21762;DHT22;11203;50.870;20.682;2023-03-25T02:14:57;11.00;99.90
21762;DHT22;11203;50.870;20.682;2023-03-25T02:17:42;10.90;99.90
21762;DHT22;11203;50.870;20.682;2023-03-25T02:32:39;10.80;99.90
21762;DHT22;11203;50.870;20.682;2023-03-25T02:35:02;10.80;99.90
21762;DHT22;11203;50.870;20.682;2023-03-25T02:37:53;10.80;99.90
21762;DHT22;11203;50.870;20.682;2023-03-25T02:40:45;10.60;99.90
21762;DHT22;11203;50.870;20.682;2023-03-25T02:45:54;10.50;99.90
21762;DHT22;11203;50.870;20.682;2023-03-25T02:48:31;10.50;99.90
21762;DHT22;11203;50.870;20.682;2023-03-25T02:51:05;10.40;99.90
21762;DHT22;11203;50.870;20.682;2023-03-25T02:53:35;10.30;99.90
21762;DHT22;11203;50.870;20.682;2023-03-25T02:56:06;10.30;99.90
21762;DHT22;11203;50.870;20.682;2023-03-25T02:58:34;10.20;99.90
21762;DHT22;11203;50.870;20.682;2023-03-25T03:01:01;10.10;99.90
21762;DHT22;11203;50.870;20.682;2023-03-25T03:03:27;10.10;99.90
21762;DHT22;11203;50.870;20.682;2023-03-25T03:05:59;10.00;99.90
21762;DHT22;11203;50.870;20.682;2023-03-25T03:19:54;9.80;99.90
21762;DHT22;11203;50.870;20.682;2023-03-25T03:25:19;9.60;99.90
21762;DHT22;11203;50.870;20.682;2023-03-25T03:33:23;9.60;99.90
21762;DHT22;11203;50.870;20.682;2023-03-25T03:36:03;9.60;99.90
21762;DHT22;11203;50.870;20.682;2023-03-25T03:38:40;9.50;99.90
21762;DHT22;11203;50.870;20.682;2023-03-25T03:41:11;9.50;99.90
21762;DHT22;11203;50.870;20.682;2023-03-25T03:43:53;9.50;99.90
21762;DHT22;11203;50.870;20.682;2023-03-25T03:46:29;9.60;99.90
21762;DHT22;11203;50.870;20.682;2023-03-25T03:49:00;9.60;99.90
21762;DHT22;11203;50.870;20.682;2023-03-25T03:51:41;9.60;99.90
21762;DHT22;11203;50.870;20.682;2023-03-25T03:54:20;9.50;99.90
21762;DHT22;11203;50.870;20.682;2023-03-25T03:56:55;9.50;99.90
21762;DHT22;11203;50.870;20.682;2023-03-25T04:02:01;9.40;99.90
21762;DHT22;11203;50.870;20.682;2023-03-25T04:04:31;9.30;99.90
21762;DHT22;11203;50.870;20.682;2023-03-25T04:07:16;9.30;99.90
21762;DHT22;11203;50.870;20.682;2023-03-25T04:09:59;9.40;99.90
21762;DHT22;11203;50.870;20.682;2023-03-25T04:12:36;9.40;99.90
21762;DHT22;11203;50.870;20.682;2023-03-25T04:15:05;9.40;99.90
21762;DHT22;11203;50.870;20.682;2023-03-25T04:17:31;9.40;99.90
21762;DHT22;11203;50.870;20.682;2023-03-25T04:20:00;9.40;99.90
21762;DHT22;11203;50.870;20.682;2023-03-25T04:22:31;9.40;99.90
21762;DHT22;11203;50.870;20.682;2023-03-25T04:24:57;9.40;99.90
21762;DHT22;11203;50.870;20.682;2023-03-25T04:27:25;9.40;99.90
21762;DHT22;11203;50.870;20.682;2023-03-25T04:29:54;9.40;99.90
21762;DHT22;11203;50.870;20.682;2023-03-25T04:32:22;9.30;99.90
21762;DHT22;11203;50.870;20.682;2023-03-25T04:34:53;9.30;99.90
21762;DHT22;11203;50.870;20.682;2023-03-25T04:37:28;9.30;99.90
21762;DHT22;11203;50.870;20.682;2023-03-25T04:39:54;9.20;99.90
21762;DHT22;11203;50.870;20.682;2023-03-25T04:42:24;9.20;99.90
21762;DHT22;11203;50.870;20.682;2023-03-25T04:44:58;9.10;99.90
21762;DHT22;11203;50.870;20.682;2023-03-25T04:47:24;9.10;99.90
21762;DHT22;11203;50.870;20.682;2023-03-25T04:49:50;9.20;99.90
21762;DHT22;11203;50.870;20.682;2023-03-25T04:52:17;9.20;99.90
21762;DHT22;11203;50.870;20.682;2023-03-25T04:54:43;9.20;99.90
21762;DHT22;11203;50.870;20.682;2023-03-25T04:57:09;9.10;99.90
21762;DHT22;11203;50.870;20.682;2023-03-25T04:59:36;9.10;99.90
21762;DHT22;11203;50.870;20.682;2023-03-25T05:02:03;9.10;99.90
21762;DHT22;11203;50.870;20.682;2023-03-25T05:04:38;9.10;99.90
21762;DHT22;11203;50.870;20.682;2023-03-25T05:07:11;9.10;99.90
21762;DHT22;11203;50.870;20.682;2023-03-25T05:09:39;9.10;99.90
21762;DHT22;11203;50.870;20.682;2023-03-25T05:12:05;9.20;99.90
21762;DHT22;11203;50.870;20.682;2023-03-25T05:14:36;9.20;99.90
21762;DHT22;11203;50.870;20.682;2023-03-25T05:17:02;9.10;99.90
21762;DHT22;11203;50.870;20.682;2023-03-25T05:19:28;9.10;99.90
21762;DHT22;11203;50.870;20.682;2023-03-25T05:21:55;9.10;99.90
21762;DHT22;11203;50.870;20.682;2023-03-25T05:24:23;9.10;99.90
21762;DHT22;11203;50.870;20.682;2023-03-25T05:26:49;9.10;99.90
21762;DHT22;11203;50.870;20.682;2023-03-25T05:29:15;9.10;99.90
21762;DHT22;11203;50.870;20.682;2023-03-25T05:31:42;9.20;99.90
21762;DHT22;11203;50.870;20.682;2023-03-25T05:34:10;9.10;99.90
21762;DHT22;11203;50.870;20.682;2023-03-25T05:36:39;9.20;99.90
21762;DHT22;11203;50.870;20.682;2023-03-25T05:39:06;9.20;99.90
21762;DHT22;11203;50.870;20.682;2023-03-25T05:41:34;9.10;99.90
21762;DHT22;11203;50.870;20.682;2023-03-25T05:44:05;9.20;99.90
21762;DHT22;11203;50.870;20.682;2023-03-25T05:46:31;9.20;99.90
21762;DHT22;11203;50.870;20.682;2023-03-25T05:48:58;9.20;99.90
21762;DHT22;11203;50.870;20.682;2023-03-25T05:51:28;9.20;99.90
21762;DHT22;11203;50.870;20.682;2023-03-25T05:53:58;9.20;99.90
21762;DHT22;11203;50.870;20.682;2023-03-25T05:56:24;9.20;99.90
21762;DHT22;11203;50.870;20.682;2023-03-25T05:58:51;9.20;99.90
21762;DHT22;11203;50.870;20.682;2023-03-25T06:01:19;9.20;99.90
21762;DHT22;11203;50.870;20.682;2023-03-25T06:03:46;9.20;99.90
21762;DHT22;11203;50.870;20.682;2023-03-25T06:06:13;9.20;99.90
21762;DHT22;11203;50.870;20.682;2023-03-25T06:08:52;9.30;99.90
21762;DHT22;11203;50.870;20.682;2023-03-25T06:11:20;9.30;99.90
21762;DHT22;11203;50.870;20.682;2023-03-25T06:13:47;9.20;99.90
21762;DHT22;11203;50.870;20.682;2023-03-25T06:16:21;9.20;99.90
21762;DHT22;11203;50.870;20.682;2023-03-25T06:18:52;9.30;99.90
21762;DHT22;11203;50.870;20.682;2023-03-25T06:21:25;9.30;99.90
21762;DHT22;11203;50.870;20.682;2023-03-25T06:23:57;9.30;99.90
21762;DHT22;11203;50.870;20.682;2023-03-25T06:26:24;9.30;99.90
21762;DHT22;11203;50.870;20.682;2023-03-25T06:28:50;9.40;99.90
21762;DHT22;11203;50.870;20.682;2023-03-25T06:31:24;9.40;99.90
21762;DHT22;11203;50.870;20.682;2023-03-25T06:33:53;9.40;99.90
21762;DHT22;11203;50.870;20.682;2023-03-25T06:36:21;9.40;99.90
21762;DHT22;11203;50.870;20.682;2023-03-25T06:38:48;9.40;99.90
21762;DHT22;11203;50.870;20.682;2023-03-25T06:41:16;9.40;99.90
21762;DHT22;11203;50.870;20.682;2023-03-25T06:43:46;8.60;99.90
21762;DHT22;11203;50.870;20.682;2023-03-25T06:46:14;9.50;99.90
21762;DHT22;11203;50.870;20.682;2023-03-25T06:48:41;9.50;99.90
21762;DHT22;11203;50.870;20.682;2023-03-25T06:51:07;9.50;99.90
21762;DHT22;11203;50.870;20.682;2023-03-25T06:53:33;9.50;99.90
21762;DHT22;11203;50.870;20.682;2023-03-25T06:55:59;9.60;99.90
21762;DHT22;11203;50.870;20.682;2023-03-25T06:58:25;9.50;99.90
21762;DHT22;11203;50.870;20.682;2023-03-25T07:01:00;9.60;99.90
21762;DHT22;11203;50.870;20.682;2023-03-25T07:03:31;9.60;99.90
21762;DHT22;11203;50.870;20.682;2023-03-25T07:05:58;9.50;99.90
21762;DHT22;11203;50.870;20.682;2023-03-25T07:08:24;9.60;99.90
21762;DHT22;11203;50.870;20.682;2023-03-25T07:10:50;9.60;99.90
21762;DHT22;11203;50.870;20.682;2023-03-25T07:13:17;9.60;99.90
21762;DHT22;11203;50.870;20.682;2023-03-25T07:15:43;9.70;99.90
21762;DHT22;11203;50.870;20.682;2023-03-25T07:18:09;9.70;99.90
21762;DHT22;11203;50.870;20.682;2023-03-25T07:20:35;9.70;99.90
21762;DHT22;11203;50.870;20.682;2023-03-25T07:23:01;9.70;99.90
21762;DHT22;11203;50.870;20.682;2023-03-25T07:25:27;9.70;99.90
21762;DHT22;11203;50.870;20.682;2023-03-25T07:27:53;9.90;99.90
21762;DHT22;11203;50.870;20.682;2023-03-25T07:30:19;9.90;99.90
21762;DHT22;11203;50.870;20.682;2023-03-25T07:32:46;9.90;99.90
21762;DHT22;11203;50.870;20.682;2023-03-25T07:35:12;9.90;99.90
21762;DHT22;11203;50.870;20.682;2023-03-25T07:37:38;9.90;99.90
21762;DHT22;11203;50.870;20.682;2023-03-25T07:40:04;9.90;99.90
21762;DHT22;11203;50.870;20.682;2023-03-25T07:42:31;9.90;99.90
21762;DHT22;11203;50.870;20.682;2023-03-25T07:44:57;9.90;99.90
21762;DHT22;11203;50.870;20.682;2023-03-25T07:47:23;10.00;99.90
21762;DHT22;11203;50.870;20.682;2023-03-25T07:49:51;10.00;99.90
21762;DHT22;11203;50.870;20.682;2023-03-25T07:52:18;10.00;99.90
21762;DHT22;11203;50.870;20.682;2023-03-25T07:54:43;10.10;99.90
21762;DHT22;11203;50.870;20.682;2023-03-25T07:57:10;10.20;99.90
21762;DHT22;11203;50.870;20.682;2023-03-25T07:59:36;10.20;99.90
21762;DHT22;11203;50.870;20.682;2023-03-25T08:02:02;10.20;99.90
21762;DHT22;11203;50.870;20.682;2023-03-25T08:04:28;10.30;99.90
21762;DHT22;11203;50.870;20.682;2023-03-25T08:06:55;10.40;99.90
21762;DHT22;11203;50.870;20.682;2023-03-25T08:09:21;10.50;99.90
21762;DHT22;11203;50.870;20.682;2023-03-25T08:11:48;10.60;99.90
21762;DHT22;11203;50.870;20.682;2023-03-25T08:14:14;10.60;99.90
21762;DHT22;11203;50.870;20.682;2023-03-25T08:16:40;10.70;99.90
21762;DHT22;11203;50.870;20.682;2023-03-25T08:19:06;10.70;99.90
21762;DHT22;11203;50.870;20.682;2023-03-25T08:21:32;10.80;99.90
21762;DHT22;11203;50.870;20.682;2023-03-25T08:23:58;10.80;99.90
21762;DHT22;11203;50.870;20.682;2023-03-25T08:26:28;10.80;99.90
21762;DHT22;11203;50.870;20.682;2023-03-25T08:28:54;10.90;99.90
21762;DHT22;11203;50.870;20.682;2023-03-25T08:31:23;10.90;99.90
21762;DHT22;11203;50.870;20.682;2023-03-25T08:33:51;11.00;99.90
21762;DHT22;11203;50.870;20.682;2023-03-25T08:36:17;10.90;99.90
21762;DHT22;11203;50.870;20.682;2023-03-25T08:38:51;11.10;99.90
21762;DHT22;11203;50.870;20.682;2023-03-25T08:41:17;11.10;99.90
21762;DHT22;11203;50.870;20.682;2023-03-25T08:43:43;11.20;99.90
21762;DHT22;11203;50.870;20.682;2023-03-25T08:46:09;11.20;99.90
21762;DHT22;11203;50.870;20.682;2023-03-25T08:48:36;11.20;99.90
21762;DHT22;11203;50.870;20.682;2023-03-25T08:51:02;11.30;99.90
21762;DHT22;11203;50.870;20.682;2023-03-25T08:53:29;11.30;99.90
21762;DHT22;11203;50.870;20.682;2023-03-25T08:55:57;11.40;99.90
21762;DHT22;11203;50.870;20.682;2023-03-25T08:58:25;11.40;99.90
21762;DHT22;11203;50.870;20.682;2023-03-25T09:00:53;11.50;99.90
21762;DHT22;11203;50.870;20.682;2023-03-25T09:03:21;11.50;99.90
21762;DHT22;11203;50.870;20.682;2023-03-25T09:05:49;11.60;99.90
21762;DHT22;11203;50.870;20.682;2023-03-25T09:08:15;11.70;99.90
21762;DHT22;11203;50.870;20.682;2023-03-25T09:10:41;11.70;99.90
21762;DHT22;11203;50.870;20.682;2023-03-25T09:13:07;11.80;99.90
21762;DHT22;11203;50.870;20.682;2023-03-25T09:15:33;11.90;99.90
21762;DHT22;11203;50.870;20.682;2023-03-25T09:17:59;11.90;99.90
21762;DHT22;11203;50.870;20.682;2023-03-25T09:20:26;11.80;99.90
21762;DHT22;11203;50.870;20.682;2023-03-25T09:22:52;12.00;99.90
21762;DHT22;11203;50.870;20.682;2023-03-25T09:25:18;11.90;99.90
21762;DHT22;11203;50.870;20.682;2023-03-25T09:27:44;12.00;99.90
21762;DHT22;11203;50.870;20.682;2023-03-25T09:30:11;12.10;99.90
21762;DHT22;11203;50.870;20.682;2023-03-25T09:32:37;12.10;99.90
21762;DHT22;11203;50.870;20.682;2023-03-25T09:35:04;12.10;99.90
21762;DHT22;11203;50.870;20.682;2023-03-25T09:37:30;12.20;99.90
21762;DHT22;11203;50.870;20.682;2023-03-25T09:39:57;12.20;99.90
21762;DHT22;11203;50.870;20.682;2023-03-25T09:48:37;12.60;99.90
21762;DHT22;11203;50.870;20.682;2023-03-25T09:56:42;12.90;99.90
21762;DHT22;11203;50.870;20.682;2023-03-25T09:59:39;13.00;99.90
21762;DHT22;11203;50.870;20.682;2023-03-25T10:08:09;13.30;99.90
21762;DHT22;11203;50.870;20.682;2023-03-25T10:23:25;13.90;99.90
21762;DHT22;11203;50.870;20.682;2023-03-25T10:26:22;13.90;99.90
21762;DHT22;11203;50.870;20.682;2023-03-25T10:29:02;13.80;99.90
21762;DHT22;11203;50.870;20.682;2023-03-25T10:31:34;13.80;99.90
21762;DHT22;11203;50.870;20.682;2023-03-25T10:34:06;13.90;99.90
21762;DHT22;11203;50.870;20.682;2023-03-25T10:36:49;13.90;99.90
21762;DHT22;11203;50.870;20.682;2023-03-25T10:39:21;13.70;99.90
21762;DHT22;11203;50.870;20.682;2023-03-25T10:41:56;13.80;99.90
21762;DHT22;11203;50.870;20.682;2023-03-25T10:44:26;13.80;99.90
21762;DHT22;11203;50.870;20.682;2023-03-25T10:47:06;13.90;99.90
21762;DHT22;11203;50.870;20.682;2023-03-25T10:49:39;14.00;99.90
21762;DHT22;11203;50.870;20.682;2023-03-25T10:52:06;14.00;99.90
21762;DHT22;11203;50.870;20.682;2023-03-25T10:54:38;14.00;99.90
21762;DHT22;11203;50.870;20.682;2023-03-25T10:57:09;14.00;99.90
21762;DHT22;11203;50.870;20.682;2023-03-25T10:59:55;14.00;99.90
21762;DHT22;11203;50.870;20.682;2023-03-25T11:02:27;14.40;99.90
21762;DHT22;11203;50.870;20.682;2023-03-25T11:04:57;14.50;99.90
21762;DHT22;11203;50.870;20.682;2023-03-25T11:07:31;14.60;99.90
21762;DHT22;11203;50.870;20.682;2023-03-25T11:12:51;14.60;99.90
21762;DHT22;11203;50.870;20.682;2023-03-25T11:18:02;14.50;99.90
21762;DHT22;11203;50.870;20.682;2023-03-25T11:20:37;14.40;99.90
21762;DHT22;11203;50.870;20.682;2023-03-25T11:23:27;14.30;99.90
21762;DHT22;11203;50.870;20.682;2023-03-25T11:26:04;14.30;99.90
21762;DHT22;11203;50.870;20.682;2023-03-25T11:28:38;14.20;99.90
21762;DHT22;11203;50.870;20.682;2023-03-25T11:31:10;14.40;99.90
21762;DHT22;11203;50.870;20.682;2023-03-25T11:34:18;14.60;99.90
21762;DHT22;11203;50.870;20.682;2023-03-25T11:36:52;14.60;99.90
21762;DHT22;11203;50.870;20.682;2023-03-25T11:39:36;14.70;99.90
21762;DHT22;11203;50.870;20.682;2023-03-25T11:44:50;15.20;99.90
21762;DHT22;11203;50.870;20.682;2023-03-25T11:47:21;15.30;99.90
21762;DHT22;11203;50.870;20.682;2023-03-25T11:49:52;15.40;99.90
21762;DHT22;11203;50.870;20.682;2023-03-25T11:52:30;15.60;99.90
21762;DHT22;11203;50.870;20.682;2023-03-25T11:55:04;15.60;99.90
21762;DHT22;11203;50.870;20.682;2023-03-25T11:57:37;15.60;99.90
21762;DHT22;11203;50.870;20.682;2023-03-25T12:00:31;15.80;99.90
21762;DHT22;11203;50.870;20.682;2023-03-25T12:03:03;15.80;99.90
21762;DHT22;11203;50.870;20.682;2023-03-25T12:06:13;15.50;99.90
21762;DHT22;11203;50.870;20.682;2023-03-25T12:08:59;15.70;99.90
21762;DHT22;11203;50.870;20.682;2023-03-25T12:11:40;15.70;99.90
21762;DHT22;11203;50.870;20.682;2023-03-25T12:23:59;15.60;99.90
21762;DHT22;11203;50.870;20.682;2023-03-25T12:32:25;15.60;99.90
21762;DHT22;11203;50.870;20.682;2023-03-25T12:38:08;16.10;99.90
21762;DHT22;11203;50.870;20.682;2023-03-25T12:40:49;16.20;99.90
21762;DHT22;11203;50.870;20.682;2023-03-25T12:51:58;15.80;99.90
21762;DHT22;11203;50.870;20.682;2023-03-25T13:00:25;15.30;99.90
21762;DHT22;11203;50.870;20.682;2023-03-25T13:12:02;11.30;99.90
21762;DHT22;11203;50.870;20.682;2023-03-25T13:14:58;9.90;99.90
21762;DHT22;11203;50.870;20.682;2023-03-25T13:20:32;9.70;99.90
21762;DHT22;11203;50.870;20.682;2023-03-25T13:23:03;9.90;99.90
21762;DHT22;11203;50.870;20.682;2023-03-25T13:28:14;10.30;99.90
21762;DHT22;11203;50.870;20.682;2023-03-25T13:30:44;10.30;99.90
21762;DHT22;11203;50.870;20.682;2023-03-25T13:36:35;10.90;99.90
21762;DHT22;11203;50.870;20.682;2023-03-25T13:39:09;11.20;99.90
21762;DHT22;11203;50.870;20.682;2023-03-25T13:41:42;11.30;99.90
21762;DHT22;11203;50.870;20.682;2023-03-25T13:44:24;11.30;99.90
21762;DHT22;11203;50.870;20.682;2023-03-25T13:46:56;11.50;99.90
21762;DHT22;11203;50.870;20.682;2023-03-25T13:49:33;11.60;99.90
21762;DHT22;11203;50.870;20.682;2023-03-25T13:52:05;11.80;99.90
21762;DHT22;11203;50.870;20.682;2023-03-25T13:54:39;11.90;99.90
21762;DHT22;11203;50.870;20.682;2023-03-25T14:05:39;11.70;99.90
21762;DHT22;11203;50.870;20.682;2023-03-25T14:11:25;10.30;99.90
21762;DHT22;11203;50.870;20.682;2023-03-25T14:14:02;10.50;99.90
21762;DHT22;11203;50.870;20.682;2023-03-25T14:16:39;10.60;99.90
21762;DHT22;11203;50.870;20.682;2023-03-25T14:19:16;10.60;99.90
21762;DHT22;11203;50.870;20.682;2023-03-25T14:21:49;10.80;99.90
21762;DHT22;11203;50.870;20.682;2023-03-25T14:24:35;10.90;99.90
21762;DHT22;11203;50.870;20.682;2023-03-25T14:27:34;11.20;99.90
21762;DHT22;11203;50.870;20.682;2023-03-25T14:30:15;11.20;99.90
21762;DHT22;11203;50.870;20.682;2023-03-25T14:32:45;11.20;99.90
21762;DHT22;11203;50.870;20.682;2023-03-25T14:46:02;11.30;99.90
21762;DHT22;11203;50.870;20.682;2023-03-25T14:51:19;11.60;99.90
21762;DHT22;11203;50.870;20.682;2023-03-25T14:54:02;11.70;99.90
21762;DHT22;11203;50.870;20.682;2023-03-25T14:56:37;11.70;99.90
21762;DHT22;11203;50.870;20.682;2023-03-25T14:59:17;11.70;99.90
21762;DHT22;11203;50.870;20.682;2023-03-25T15:01:45;11.70;99.90
21762;DHT22;11203;50.870;20.682;2023-03-25T15:06:41;11.80;99.90
21762;DHT22;11203;50.870;20.682;2023-03-25T15:09:10;11.80;99.90
21762;DHT22;11203;50.870;20.682;2023-03-25T15:11:40;11.80;99.90
21762;DHT22;11203;50.870;20.682;2023-03-25T15:14:33;11.80;99.90
21762;DHT22;11203;50.870;20.682;2023-03-25T15:17:09;11.80;99.90
21762;DHT22;11203;50.870;20.682;2023-03-25T15:22:31;11.60;99.90
21762;DHT22;11203;50.870;20.682;2023-03-25T15:24:58;11.20;99.90
21762;DHT22;11203;50.870;20.682;2023-03-25T15:32:47;10.60;99.90
21762;DHT22;11203;50.870;20.682;2023-03-25T15:35:51;10.50;99.90
21762;DHT22;11203;50.870;20.682;2023-03-25T15:50:34;10.20;99.90
21762;DHT22;11203;50.870;20.682;2023-03-25T15:56:20;10.20;99.90
21762;DHT22;11203;50.870;20.682;2023-03-25T15:59:07;10.20;99.90
21762;DHT22;11203;50.870;20.682;2023-03-25T16:01:48;10.10;99.90
21762;DHT22;11203;50.870;20.682;2023-03-25T16:04:45;10.10;99.90
21762;DHT22;11203;50.870;20.682;2023-03-25T16:07:13;10.20;99.90
21762;DHT22;11203;50.870;20.682;2023-03-25T16:09:45;10.10;99.90
21762;DHT22;11203;50.870;20.682;2023-03-25T16:12:24;10.10;99.90
21762;DHT22;11203;50.870;20.682;2023-03-25T16:14:51;10.10;99.90
21762;DHT22;11203;50.870;20.682;2023-03-25T16:17:20;10.10;99.90
21762;DHT22;11203;50.870;20.682;2023-03-25T16:19:56;10.10;99.90
21762;DHT22;11203;50.870;20.682;2023-03-25T16:22:28;10.10;99.90
21762;DHT22;11203;50.870;20.682;2023-03-25T16:24:59;10.10;99.90
21762;DHT22;11203;50.870;20.682;2023-03-25T16:27:33;10.10;99.90
21762;DHT22;11203;50.870;20.682;2023-03-25T16:30:36;10.00;99.90
21762;DHT22;11203;50.870;20.682;2023-03-25T16:38:30;10.20;99.90
21762;DHT22;11203;50.870;20.682;2023-03-25T16:41:08;10.00;99.90
21762;DHT22;11203;50.870;20.682;2023-03-25T16:43:36;9.80;99.90
21762;DHT22;11203;50.870;20.682;2023-03-25T16:46:04;9.40;99.90
21762;DHT22;11203;50.870;20.682;2023-03-25T16:48:38;9.30;99.90
21762;DHT22;11203;50.870;20.682;2023-03-25T16:51:11;9.30;99.90
21762;DHT22;11203;50.870;20.682;2023-03-25T16:53:43;9.30;99.90
21762;DHT22;11203;50.870;20.682;2023-03-25T17:01:57;9.40;99.90
21762;DHT22;11203;50.870;20.682;2023-03-25T17:04:35;9.40;99.90
21762;DHT22;11203;50.870;20.682;2023-03-25T17:07:17;9.40;99.90
21762;DHT22;11203;50.870;20.682;2023-03-25T17:09:54;9.40;99.90
21762;DHT22;11203;50.870;20.682;2023-03-25T17:12:24;9.30;99.90
21762;DHT22;11203;50.870;20.682;2023-03-25T17:14:57;9.40;99.90
21762;DHT22;11203;50.870;20.682;2023-03-25T17:17:43;9.20;99.90
21762;DHT22;11203;50.870;20.682;2023-03-25T17:20:23;9.20;99.90
21762;DHT22;11203;50.870;20.682;2023-03-25T17:23:04;9.10;99.90
21762;DHT22;11203;50.870;20.682;2023-03-25T17:25:50;9.10;99.90
21762;DHT22;11203;50.870;20.682;2023-03-25T17:28:45;9.10;99.90
21762;DHT22;11203;50.870;20.682;2023-03-25T17:34:12;9.00;99.90
21762;DHT22;11203;50.870;20.682;2023-03-25T17:36:42;8.90;99.90
21762;DHT22;11203;50.870;20.682;2023-03-25T17:39:23;8.90;99.90
21762;DHT22;11203;50.870;20.682;2023-03-25T17:42:04;8.90;99.90
21762;DHT22;11203;50.870;20.682;2023-03-25T17:44:36;8.80;99.90
21762;DHT22;11203;50.870;20.682;2023-03-25T17:47:05;8.80;99.90
21762;DHT22;11203;50.870;20.682;2023-03-25T17:49:32;8.70;99.90
21762;DHT22;11203;50.870;20.682;2023-03-25T17:51:59;8.60;99.90
21762;DHT22;11203;50.870;20.682;2023-03-25T17:54:27;8.50;99.90
21762;DHT22;11203;50.870;20.682;2023-03-25T17:56:53;8.40;99.90
21762;DHT22;11203;50.870;20.682;2023-03-25T17:59:21;8.40;99.90
21762;DHT22;11203;50.870;20.682;2023-03-25T18:01:50;8.30;99.90
21762;DHT22;11203;50.870;20.682;2023-03-25T18:04:18;8.20;99.90
21762;DHT22;11203;50.870;20.682;2023-03-25T18:06:47;8.10;99.90
21762;DHT22;11203;50.870;20.682;2023-03-25T18:09:19;8.10;99.90
21762;DHT22;11203;50.870;20.682;2023-03-25T18:11:49;8.00;99.90
21762;DHT22;11203;50.870;20.682;2023-03-25T18:14:18;8.10;99.90
21762;DHT22;11203;50.870;20.682;2023-03-25T18:16:45;8.10;99.90
21762;DHT22;11203;50.870;20.682;2023-03-25T18:19:23;8.20;99.90
21762;DHT22;11203;50.870;20.682;2023-03-25T18:21:51;8.40;99.90
21762;DHT22;11203;50.870;20.682;2023-03-25T18:24:19;8.40;99.90
21762;DHT22;11203;50.870;20.682;2023-03-25T18:26:48;8.40;99.90
21762;DHT22;11203;50.870;20.682;2023-03-25T18:29:23;8.30;99.90
21762;DHT22;11203;50.870;20.682;2023-03-25T18:31:54;8.30;99.90
21762;DHT22;11203;50.870;20.682;2023-03-25T18:34:20;8.20;99.90
21762;DHT22;11203;50.870;20.682;2023-03-25T18:36:48;8.10;99.90
21762;DHT22;11203;50.870;20.682;2023-03-25T18:39:16;8.20;99.90
21762;DHT22;11203;50.870;20.682;2023-03-25T18:41:44;8.10;99.90
21762;DHT22;11203;50.870;20.682;2023-03-25T18:44:11;8.10;99.90
21762;DHT22;11203;50.870;20.682;2023-03-25T18:46:38;7.90;99.90
21762;DHT22;11203;50.870;20.682;2023-03-25T18:49:26;7.90;99.90
21762;DHT22;11203;50.870;20.682;2023-03-25T18:51:53;7.80;99.90
21762;DHT22;11203;50.870;20.682;2023-03-25T18:54:21;7.70;99.90
21762;DHT22;11203;50.870;20.682;2023-03-25T18:56:47;7.80;99.90
21762;DHT22;11203;50.870;20.682;2023-03-25T18:59:17;7.70;99.90
21762;DHT22;11203;50.870;20.682;2023-03-25T19:01:43;7.70;99.90
21762;DHT22;11203;50.870;20.682;2023-03-25T19:04:10;7.70;99.90
21762;DHT22;11203;50.870;20.682;2023-03-25T19:06:36;7.70;99.90